Time;durP1;ratioP1;P1;durP2;ratioP2;P2;SDS_P1;SDS_P2;PMS_P1;PMS_P2;Temp;Humidity;BMP_temperature;BMP_pressure;BME280_temperature;BME280_humidity;BME280_pressure;Samples;Min_cycle;Max_cycle;Signal;HPM_P1;HPM_P2
2022/11/02 00:00:41;;;;;;;46.27;21.30;;;7.00;99.90;;;;;;5110664;28;20268;-69
2022/11/02 00:03:08;;;;;;;38.20;19.73;;;7.00;99.90;;;;;;5116011;28;20227;-68
2022/11/02 00:05:35;;;;;;;41.63;21.47;;;6.90;99.90;;;;;;5115616;28;20591;-68
2022/11/02 00:08:02;;;;;;;37.83;20.13;;;7.00;99.90;;;;;;5116152;28;20203;-70
2022/11/02 00:10:29;;;;;;;42.40;20.50;;;7.00;99.90;;;;;;5116220;28;20199;-69
2022/11/02 00:12:56;;;;;;;39.13;20.60;;;7.00;99.90;;;;;;5114543;28;20657;-69
2022/11/02 00:15:26;;;;;;;42.87;20.57;;;7.00;99.90;;;;;;5116137;28;20574;-68
2022/11/02 00:17:58;;;;;;;42.57;20.80;;;7.00;99.90;;;;;;5114751;27;20209;-68
2022/11/02 00:20:26;;;;;;;39.23;18.13;;;7.00;99.90;;;;;;5116014;28;20668;-68
2022/11/02 00:22:57;;;;;;;38.07;18.63;;;7.00;99.90;;;;;;5115681;28;20204;-68
2022/11/02 00:25:25;;;;;;;36.47;17.80;;;7.00;99.90;;;;;;5115781;28;20195;-69
2022/11/02 00:27:52;;;;;;;38.30;18.10;;;7.00;99.90;;;;;;5115846;28;20791;-68
2022/11/02 00:30:19;;;;;;;36.37;17.80;;;6.90;99.90;;;;;;5114545;28;20199;-69
2022/11/02 00:32:46;;;;;;;41.53;19.00;;;6.90;99.90;;;;;;5115187;28;20227;-68
2022/11/02 00:35:14;;;;;;;45.33;20.23;;;6.90;99.90;;;;;;5115871;28;20210;-68
2022/11/02 00:37:41;;;;;;;36.73;18.03;;;6.90;99.90;;;;;;5115469;28;20415;-67
2022/11/02 00:40:09;;;;;;;36.67;18.93;;;6.90;99.90;;;;;;5115418;28;20229;-69
2022/11/02 00:42:36;;;;;;;37.60;18.63;;;6.90;99.90;;;;;;5115108;28;20715;-68
2022/11/02 00:45:03;;;;;;;36.93;18.80;;;6.80;99.90;;;;;;5114374;28;20292;-69
2022/11/02 00:47:30;;;;;;;33.63;17.67;;;6.80;99.90;;;;;;5112953;28;20223;-68
2022/11/02 00:49:57;;;;;;;33.20;17.80;;;6.80;99.90;;;;;;5115290;28;20246;-67
2022/11/02 00:52:25;;;;;;;37.80;18.27;;;6.80;99.90;;;;;;5114770;28;20645;-68
2022/11/02 00:54:52;;;;;;;37.67;18.37;;;6.80;99.90;;;;;;5115186;28;20260;-66
2022/11/02 00:57:19;;;;;;;32.73;17.10;;;6.80;99.90;;;;;;5115333;28;20199;-67
2022/11/02 00:59:45;;;;;;;39.57;17.97;;;6.70;99.90;;;;;;5114260;28;20217;-67
2022/11/02 01:02:12;;;;;;;37.47;18.17;;;6.70;99.90;;;;;;5115083;28;20560;-67
2022/11/02 01:04:39;;;;;;;39.63;18.50;;;6.70;99.90;;;;;;5112809;28;20219;-67
2022/11/02 01:07:06;;;;;;;43.27;19.13;;;6.70;99.90;;;;;;5114637;28;20217;-67
2022/11/02 01:09:34;;;;;;;37.80;19.47;;;6.70;99.90;;;;;;5114997;28;20199;-67
2022/11/02 01:12:01;;;;;;;36.27;18.07;;;6.70;99.90;;;;;;5114695;28;20199;-66
2022/11/02 01:14:28;;;;;;;35.90;18.23;;;6.70;99.90;;;;;;5114875;28;20557;-68
2022/11/02 01:16:56;;;;;;;38.63;19.47;;;6.60;99.90;;;;;;5114397;28;20210;-67
2022/11/02 01:19:23;;;;;;;39.30;19.17;;;6.60;99.90;;;;;;5113710;28;20206;-67
2022/11/02 01:21:50;;;;;;;35.07;18.57;;;6.60;99.90;;;;;;5114474;28;20199;-67
2022/11/02 01:24:17;;;;;;;37.43;19.07;;;6.60;99.90;;;;;;5114544;28;20229;-67
2022/11/02 01:26:45;;;;;;;39.57;19.53;;;6.60;99.90;;;;;;5114385;28;20207;-68
2022/11/02 01:29:12;;;;;;;37.50;17.83;;;6.60;99.90;;;;;;5114554;28;20310;-67
2022/11/02 01:31:39;;;;;;;37.40;19.13;;;6.60;99.90;;;;;;5113878;28;20203;-70
2022/11/02 01:34:06;;;;;;;36.13;18.40;;;6.60;99.90;;;;;;5113995;28;20645;-67
2022/11/02 01:36:33;;;;;;;35.70;18.83;;;6.60;99.90;;;;;;5114411;28;20273;-68
2022/11/02 01:39:00;;;;;;;32.93;17.10;;;6.60;99.90;;;;;;5114119;28;20199;-68
2022/11/02 01:41:26;;;;;;;34.03;18.33;;;6.60;99.90;;;;;;5114054;28;20508;-68
2022/11/02 01:43:57;;;;;;;37.10;18.47;;;6.60;99.90;;;;;;5114153;28;20233;-68
2022/11/02 01:46:30;;;;;;;33.00;16.90;;;6.60;99.90;;;;;;5113523;28;20545;-68
2022/11/02 01:49:02;;;;;;;34.97;16.63;;;6.60;99.90;;;;;;5105886;28;20199;-69
2022/11/02 01:51:33;;;;;;;38.63;17.90;;;6.60;99.90;;;;;;5110585;28;20563;-67
2022/11/02 01:54:05;;;;;;;35.40;17.67;;;6.60;99.90;;;;;;5108553;27;20378;-68
2022/11/02 01:56:33;;;;;;;33.13;17.37;;;6.70;99.90;;;;;;5112653;28;20205;-68
2022/11/02 01:59:03;;;;;;;35.73;17.10;;;6.70;99.90;;;;;;5113561;28;20229;-69
2022/11/02 02:01:31;;;;;;;34.17;18.10;;;6.60;99.90;;;;;;5113786;28;20191;-68
2022/11/02 02:03:59;;;;;;;35.57;19.00;;;6.70;99.90;;;;;;5113301;28;20227;-69
2022/11/02 02:06:26;;;;;;;40.20;19.60;;;6.70;99.90;;;;;;5111070;28;20199;-68
2022/11/02 02:08:54;;;;;;;40.07;21.00;;;6.70;99.90;;;;;;5110055;28;20220;-68
2022/11/02 02:11:26;;;;;;;43.77;22.93;;;6.70;99.90;;;;;;5113324;28;20203;-68
2022/11/02 02:13:54;;;;;;;43.27;24.03;;;6.70;99.90;;;;;;5113081;28;20184;-67
2022/11/02 02:16:35;;;;;;;46.77;24.13;;;6.60;99.90;;;;;;5112742;28;20557;-68
2022/11/02 02:19:13;;;;;;;49.50;25.03;;;6.60;99.90;;;;;;5112725;28;20198;-67
2022/11/02 02:22:04;;;;;;;45.63;23.23;;;6.60;99.90;;;;;;5111516;28;20557;-68
2022/11/02 02:24:44;;;;;;;50.20;23.90;;;6.60;99.90;;;;;;5112979;28;20212;-69
2022/11/02 02:27:17;;;;;;;42.10;21.83;;;6.60;99.90;;;;;;5111344;28;20644;-68
2022/11/02 02:29:54;;;;;;;44.07;20.37;;;6.60;99.90;;;;;;5113141;28;20191;-68
2022/11/02 02:32:27;;;;;;;42.63;20.57;;;6.60;99.90;;;;;;5112987;28;20199;-69
2022/11/02 02:35:01;;;;;;;43.73;19.53;;;6.60;99.90;;;;;;5113016;28;20647;-67
2022/11/02 02:37:35;;;;;;;42.10;21.17;;;6.50;99.90;;;;;;5112297;28;20202;-68
2022/11/02 02:40:07;;;;;;;37.47;19.83;;;6.50;99.90;;;;;;5113005;28;20632;-68
2022/11/02 02:42:40;;;;;;;42.23;20.73;;;6.50;99.90;;;;;;5112796;28;20601;-68
2022/11/02 02:45:15;;;;;;;37.90;19.77;;;6.50;99.90;;;;;;5112550;28;20207;-68
2022/11/02 02:47:47;;;;;;;38.43;19.27;;;6.40;99.90;;;;;;5112063;28;20198;-69
2022/11/02 02:50:18;;;;;;;37.67;18.23;;;6.40;99.90;;;;;;5112939;28;20194;-69
2022/11/02 02:52:46;;;;;;;33.90;17.30;;;6.40;99.90;;;;;;5112333;28;20272;-69
2022/11/02 02:55:16;;;;;;;32.90;16.53;;;6.30;99.90;;;;;;5111101;28;20205;-68
2022/11/02 02:57:44;;;;;;;37.20;17.93;;;6.30;99.90;;;;;;5112199;28;20211;-67
2022/11/02 03:00:16;;;;;;;38.17;19.77;;;6.30;99.90;;;;;;5112802;28;20203;-68
2022/11/02 03:02:59;;;;;;;41.63;19.80;;;6.30;99.90;;;;;;5112536;28;20249;-68
2022/11/02 03:05:29;;;;;;;42.53;21.07;;;6.30;99.90;;;;;;5112454;28;20218;-68
2022/11/02 03:07:57;;;;;;;41.27;20.57;;;6.30;99.90;;;;;;5112653;28;20234;-68
2022/11/02 03:10:31;;;;;;;39.73;20.17;;;6.30;99.90;;;;;;5111347;28;20202;-69
2022/11/02 03:13:08;;;;;;;41.70;20.97;;;6.30;99.90;;;;;;5112824;28;20192;-68
2022/11/02 03:15:41;;;;;;;41.97;20.40;;;6.30;99.90;;;;;;5112441;28;20240;-68
2022/11/02 03:18:16;;;;;;;39.23;19.97;;;6.30;99.90;;;;;;5112445;28;20196;-68
2022/11/02 03:20:54;;;;;;;37.60;19.77;;;6.30;99.90;;;;;;5112339;28;20191;-68
2022/11/02 03:23:28;;;;;;;38.77;19.50;;;6.30;99.90;;;;;;5112588;28;20780;-68
2022/11/02 03:26:02;;;;;;;37.83;19.00;;;6.30;99.90;;;;;;5111286;28;20684;-70
2022/11/02 03:28:41;;;;;;;40.47;19.10;;;6.30;99.90;;;;;;5111825;28;20282;-68
2022/11/02 03:31:16;;;;;;;33.97;17.67;;;6.30;99.90;;;;;;5112088;28;20197;-69
2022/11/02 03:33:47;;;;;;;36.47;18.53;;;6.30;99.90;;;;;;5112078;28;20527;-68
2022/11/02 03:36:19;;;;;;;34.77;17.67;;;6.30;99.90;;;;;;5112042;28;20202;-69
2022/11/02 03:38:50;;;;;;;36.83;18.20;;;6.20;99.90;;;;;;5111527;28;20188;-68
2022/11/02 03:41:20;;;;;;;34.27;17.90;;;6.20;99.90;;;;;;5108568;28;20238;-69
2022/11/02 03:43:49;;;;;;;40.27;20.70;;;6.20;99.90;;;;;;5111634;28;20214;-69
2022/11/02 03:46:19;;;;;;;40.97;20.87;;;6.20;99.90;;;;;;5111900;28;20204;-68
2022/11/02 03:48:48;;;;;;;37.97;19.80;;;6.20;99.90;;;;;;5111896;28;20202;-68
2022/11/02 03:51:20;;;;;;;37.13;18.63;;;6.20;99.90;;;;;;5111968;28;20211;-68
2022/11/02 03:53:52;;;;;;;35.37;19.13;;;6.20;99.90;;;;;;5111879;28;20191;-68
2022/11/02 03:56:23;;;;;;;36.20;18.70;;;6.20;99.90;;;;;;5110831;28;20199;-68
2022/11/02 03:58:50;;;;;;;38.97;19.67;;;6.20;99.90;;;;;;5112105;28;20198;-67
2022/11/02 04:01:20;;;;;;;36.90;19.17;;;6.20;99.90;;;;;;5111980;28;20530;-69
2022/11/02 04:03:47;;;;;;;33.20;17.93;;;6.20;99.90;;;;;;5111755;28;20229;-68
2022/11/02 04:06:15;;;;;;;33.80;17.27;;;6.10;99.90;;;;;;5109812;28;20215;-68
2022/11/02 04:08:43;;;;;;;32.80;17.17;;;6.20;99.90;;;;;;5111328;28;20230;-69
2022/11/02 04:16:40;;;;;;;34.67;17.23;;;6.20;99.90;;;;;;5111485;28;20201;-67
2022/11/02 04:27:20;;;;;;;30.90;16.83;;;6.30;99.90;;;;;;5111403;28;20190;-69
2022/11/02 04:29:47;;;;;;;39.53;19.03;;;6.30;99.90;;;;;;5111412;28;20214;-68
2022/11/02 04:33:31;;;;;;;32.17;17.03;;;6.40;99.90;;;;;;5111672;28;20223;-68
2022/11/02 04:35:01;;;;;;;33.40;16.83;;;6.40;99.90;;;;;;5110544;28;20672;-68
2022/11/02 04:40:12;;;;;;;35.40;18.60;;;6.50;99.90;;;;;;5105178;28;20199;-68
2022/11/02 04:42:39;;;;;;;36.73;18.40;;;6.50;99.90;;;;;;5114686;28;20227;-68
2022/11/02 04:45:07;;;;;;;44.17;20.60;;;6.50;99.90;;;;;;5115265;28;20223;-68
2022/11/02 04:47:35;;;;;;;38.43;19.37;;;6.50;99.90;;;;;;5115078;28;20214;-68
2022/11/02 04:50:02;;;;;;;39.23;20.00;;;6.50;99.90;;;;;;5114845;28;20207;-68
2022/11/02 04:52:29;;;;;;;43.33;21.30;;;6.50;99.90;;;;;;5114819;28;20203;-68
2022/11/02 04:54:56;;;;;;;62.10;30.73;;;6.50;99.90;;;;;;5115118;28;20195;-70
2022/11/02 04:57:22;;;;;;;60.33;30.63;;;6.50;99.90;;;;;;5114628;28;20223;-67
2022/11/02 04:59:49;;;;;;;47.90;24.87;;;6.50;99.90;;;;;;5114931;28;20556;-68
2022/11/02 05:02:16;;;;;;;48.70;23.40;;;6.60;99.90;;;;;;5114988;28;20219;-70
2022/11/02 05:04:44;;;;;;;57.93;27.70;;;6.50;99.90;;;;;;5113740;28;20320;-69
2022/11/02 05:07:11;;;;;;;55.83;27.80;;;6.50;99.90;;;;;;5114476;28;20203;-70
2022/11/02 05:09:41;;;;;;;61.53;26.87;;;6.60;99.90;;;;;;5114147;28;20218;-68
2022/11/02 05:12:08;;;;;;;47.33;23.73;;;6.50;99.90;;;;;;5114528;28;20268;-69
2022/11/02 05:14:35;;;;;;;51.93;24.80;;;6.50;99.90;;;;;;5114053;28;20203;-68
2022/11/02 05:17:02;;;;;;;47.83;24.33;;;6.50;99.90;;;;;;5114728;28;20680;-68
2022/11/02 05:19:29;;;;;;;48.00;21.77;;;6.50;99.90;;;;;;5113431;28;20546;-70
2022/11/02 05:21:57;;;;;;;41.53;19.87;;;6.50;99.90;;;;;;5114543;28;20230;-69
2022/11/02 05:24:24;;;;;;;41.43;21.13;;;6.50;99.90;;;;;;5114095;27;20290;-69
2022/11/02 05:26:51;;;;;;;41.87;21.10;;;6.50;99.90;;;;;;5114178;28;20210;-68
2022/11/02 05:29:18;;;;;;;39.97;21.17;;;6.50;99.90;;;;;;5113841;28;20831;-68
2022/11/02 05:31:44;;;;;;;40.60;20.47;;;6.40;99.90;;;;;;5114298;28;20570;-68
2022/11/02 05:34:11;;;;;;;40.77;20.77;;;6.40;99.90;;;;;;5111277;28;20552;-69
2022/11/02 05:36:38;;;;;;;37.87;19.07;;;6.40;99.90;;;;;;5113629;28;20215;-67
2022/11/02 05:39:06;;;;;;;42.73;21.13;;;6.40;99.90;;;;;;5113090;28;20200;-68
2022/11/02 05:41:33;;;;;;;44.90;20.80;;;6.40;99.90;;;;;;5113558;28;20242;-68
2022/11/02 09:17:45;;;;;;;42.47;21.17;;;9.30;99.90;;;;;;5029000;28;20609;-69
2022/11/02 09:20:12;;;;;;;37.63;20.93;;;10.20;99.90;;;;;;5028990;28;20510;-69
2022/11/02 09:22:39;;;;;;;49.40;21.73;;;10.30;99.90;;;;;;5028844;28;20213;-67
2022/11/02 09:25:07;;;;;;;38.67;22.97;;;10.40;99.90;;;;;;5028857;28;20206;-68
2022/11/02 09:27:33;;;;;;;46.57;22.67;;;10.60;99.90;;;;;;5028787;28;20294;-67
2022/11/02 09:30:00;;;;;;;46.50;22.77;;;10.60;99.90;;;;;;5028955;28;20202;-68
2022/11/02 09:32:28;;;;;;;45.73;22.20;;;10.70;99.90;;;;;;5028592;28;20212;-70
2022/11/02 09:34:56;;;;;;;44.20;21.93;;;10.80;99.90;;;;;;5028799;28;20330;-68
2022/11/02 09:37:23;;;;;;;40.50;22.03;;;10.80;99.90;;;;;;5028929;28;20217;-69
2022/11/02 09:39:50;;;;;;;41.97;23.00;;;10.90;99.90;;;;;;5028599;28;20238;-68
2022/11/02 09:42:23;;;;;;;43.03;22.23;;;11.00;99.90;;;;;;5028571;28;20203;-68
2022/11/02 09:44:56;;;;;;;40.93;23.17;;;11.00;99.90;;;;;;5029018;28;20551;-69
2022/11/02 09:47:24;;;;;;;39.47;22.53;;;11.10;99.90;;;;;;5029032;28;20217;-68
2022/11/02 09:49:52;;;;;;;40.77;21.83;;;11.20;99.90;;;;;;5028397;28;20210;-69
2022/11/02 09:52:27;;;;;;;46.63;22.40;;;11.20;99.90;;;;;;5028589;28;20301;-68
2022/11/02 09:54:56;;;;;;;39.60;22.20;;;11.30;99.90;;;;;;5028704;28;20194;-68
2022/11/02 09:57:28;;;;;;;46.97;22.90;;;11.40;99.90;;;;;;5028387;28;20566;-69
2022/11/02 09:59:56;;;;;;;38.47;21.37;;;11.40;99.90;;;;;;5028630;28;20222;-68
2022/11/02 10:02:30;;;;;;;47.43;21.90;;;11.50;99.90;;;;;;5028464;28;20202;-68
2022/11/02 10:05:18;;;;;;;38.20;20.43;;;11.60;99.90;;;;;;5028425;28;20293;-68
2022/11/02 10:08:01;;;;;;;44.30;21.37;;;11.60;99.90;;;;;;5024610;28;20225;-68
2022/11/02 10:10:34;;;;;;;38.07;20.50;;;11.70;99.90;;;;;;5021612;28;20205;-68
2022/11/02 10:13:11;;;;;;;36.77;18.77;;;11.80;99.90;;;;;;5027861;28;20194;-68
2022/11/02 10:15:41;;;;;;;34.77;17.90;;;11.80;99.90;;;;;;5027718;28;20789;-67
2022/11/02 10:18:13;;;;;;;38.87;19.13;;;11.90;99.90;;;;;;5005681;28;20571;-66
2022/11/02 10:20:44;;;;;;;41.20;19.90;;;12.00;99.90;;;;;;4995190;28;20286;-68
2022/11/02 10:23:20;;;;;;;34.30;19.47;;;12.00;99.90;;;;;;4995918;28;20245;-68
2022/11/02 10:25:48;;;;;;;36.07;18.77;;;12.10;99.90;;;;;;5003674;28;20191;-67
2022/11/02 10:28:18;;;;;;;34.60;18.87;;;12.20;99.90;;;;;;5014663;28;20203;-67
2022/11/02 10:30:45;;;;;;;34.63;18.10;;;12.20;99.90;;;;;;4999770;28;20196;-68
2022/11/02 10:33:15;;;;;;;35.17;19.10;;;12.30;99.90;;;;;;4994902;28;20211;-68
2022/11/02 10:35:50;;;;;;;33.17;17.07;;;12.30;99.90;;;;;;4998224;28;20231;-67
2022/11/02 10:38:31;;;;;;;32.90;17.07;;;12.30;99.90;;;;;;5014539;28;20199;-68
2022/11/02 10:41:15;;;;;;;29.70;15.67;;;12.40;99.90;;;;;;5012625;28;20589;-68
2022/11/02 10:44:00;;;;;;;31.50;16.00;;;12.40;99.90;;;;;;4994920;28;20258;-66
2022/11/02 10:46:38;;;;;;;31.70;16.13;;;12.40;99.90;;;;;;4994602;28;20188;-68
2022/11/02 10:49:12;;;;;;;30.87;16.20;;;12.50;99.90;;;;;;4995123;28;20195;-71
2022/11/02 10:51:39;;;;;;;28.70;15.67;;;12.50;99.90;;;;;;4995486;28;20198;-71
2022/11/02 10:54:13;;;;;;;26.30;14.90;;;12.60;99.90;;;;;;4994742;28;20541;-71
2022/11/02 10:56:42;;;;;;;35.13;16.60;;;12.60;99.90;;;;;;4995150;28;20677;-73
2022/11/02 10:59:13;;;;;;;34.67;16.80;;;12.70;99.90;;;;;;4993315;28;20674;-71
2022/11/02 11:01:46;;;;;;;29.73;15.63;;;12.70;99.90;;;;;;4995246;28;20196;-72
2022/11/02 11:04:21;;;;;;;32.97;15.33;;;12.70;99.90;;;;;;4994857;28;20191;-71
2022/11/02 11:06:48;;;;;;;30.00;15.33;;;12.80;99.90;;;;;;4999815;28;20197;-72
2022/11/02 11:09:19;;;;;;;42.10;16.23;;;12.80;99.90;;;;;;5002242;28;20736;-70
2022/11/02 11:11:54;;;;;;;32.97;15.10;;;12.80;99.90;;;;;;5007925;28;20209;-70
2022/11/02 11:14:23;;;;;;;29.13;14.97;;;12.80;99.90;;;;;;5004991;28;20207;-72
2022/11/02 11:16:52;;;;;;;33.87;15.80;;;12.80;99.90;;;;;;5001407;28;20239;-71
2022/11/02 11:19:23;;;;;;;30.33;15.90;;;12.90;99.90;;;;;;5001742;28;20207;-74
2022/11/02 11:21:50;;;;;;;37.10;16.53;;;13.00;99.90;;;;;;4998379;28;20199;-71
2022/11/02 11:24:23;;;;;;;32.17;15.40;;;13.00;99.90;;;;;;4994249;28;20302;-72
2022/11/02 11:27:15;;;;;;;32.43;15.87;;;13.00;99.90;;;;;;4994719;28;20545;-72
2022/11/02 11:29:48;;;;;;;28.53;14.77;;;13.00;99.90;;;;;;4993590;28;20701;-73
2022/11/02 11:32:17;;;;;;;28.47;15.33;;;13.00;99.90;;;;;;4999311;28;20200;-72
2022/11/02 11:34:47;;;;;;;29.23;15.73;;;13.00;99.90;;;;;;4993831;28;20215;-71
2022/11/02 11:37:16;;;;;;;30.20;16.07;;;13.00;99.90;;;;;;4993841;28;20224;-71
2022/11/02 11:39:50;;;;;;;30.20;15.10;;;13.10;99.90;;;;;;4994272;28;20238;-72
2022/11/02 11:42:19;;;;;;;30.00;16.40;;;13.10;99.90;;;;;;4994150;28;20656;-71
2022/11/02 11:44:55;;;;;;;28.80;15.93;;;13.10;99.90;;;;;;4994102;28;20207;-71
2022/11/02 11:47:26;;;;;;;29.10;15.37;;;13.10;99.90;;;;;;4994085;28;20645;-72
2022/11/02 11:49:55;;;;;;;28.67;15.03;;;13.20;99.90;;;;;;4994159;28;20203;-71
2022/11/02 11:52:25;;;;;;;26.97;14.43;;;13.20;99.90;;;;;;4993911;28;20214;-70
2022/11/02 11:54:55;;;;;;;26.63;13.40;;;13.20;99.90;;;;;;4993593;28;20214;-72
2022/11/02 11:57:27;;;;;;;30.57;12.77;;;13.30;99.90;;;;;;4993326;28;20227;-71
2022/11/02 11:59:57;;;;;;;26.40;13.37;;;13.30;99.90;;;;;;4993743;28;20711;-72
2022/11/02 12:02:26;;;;;;;25.17;12.30;;;13.40;99.90;;;;;;4993869;28;20202;-69
2022/11/02 12:05:02;;;;;;;24.10;13.27;;;13.40;99.90;;;;;;4993232;28;20220;-72
2022/11/02 12:07:52;;;;;;;22.80;12.50;;;13.40;99.90;;;;;;4993615;28;20477;-71
2022/11/02 12:10:37;;;;;;;20.17;11.90;;;13.40;99.90;;;;;;4993610;28;20198;-71
2022/11/02 12:13:16;;;;;;;26.27;12.97;;;13.50;99.90;;;;;;4993490;28;20202;-71
2022/11/02 12:15:56;;;;;;;27.93;13.13;;;13.50;99.90;;;;;;4992763;28;20243;-71
2022/11/02 12:18:35;;;;;;;28.17;12.63;;;13.40;99.90;;;;;;4993110;28;20218;-70
2022/11/02 12:21:19;;;;;;;24.40;13.53;;;13.40;99.90;;;;;;4993168;28;20681;-71
2022/11/02 12:24:18;;;;;;;25.37;14.00;;;13.30;99.90;;;;;;4992930;28;20197;-71
2022/11/02 12:26:59;;;;;;;29.70;13.33;;;13.30;99.90;;;;;;4992992;28;20239;-71
2022/11/02 12:29:57;;;;;;;29.63;14.27;;;13.30;99.90;;;;;;4993067;28;20227;-71
2022/11/02 12:32:41;;;;;;;23.33;12.57;;;13.30;99.90;;;;;;4993105;28;20203;-70
2022/11/02 12:35:35;;;;;;;28.50;13.97;;;13.30;99.90;;;;;;4993224;28;20198;-71
2022/11/02 12:38:17;;;;;;;27.93;13.17;;;13.20;99.90;;;;;;4992602;28;20230;-69
2022/11/02 12:40:54;;;;;;;29.03;14.30;;;13.20;99.90;;;;;;4992344;28;20199;-71
2022/11/02 12:43:37;;;;;;;33.80;14.07;;;13.20;99.90;;;;;;4992971;28;20532;-71
2022/11/02 12:46:15;;;;;;;29.60;13.57;;;13.20;99.90;;;;;;4992573;28;20218;-70
2022/11/02 12:48:49;;;;;;;25.93;13.30;;;13.20;99.90;;;;;;4992899;28;20195;-70
2022/11/02 12:51:21;;;;;;;29.27;13.50;;;13.10;99.90;;;;;;4992798;28;20202;-71
2022/11/02 12:53:52;;;;;;;26.47;13.20;;;13.20;99.90;;;;;;4992703;28;20655;-70
2022/11/02 12:56:24;;;;;;;25.57;13.70;;;13.30;99.90;;;;;;4992551;28;20226;-70
2022/11/02 12:58:54;;;;;;;25.63;13.30;;;13.30;99.90;;;;;;4992321;28;20198;-72
2022/11/02 13:01:26;;;;;;;30.20;13.40;;;13.30;99.90;;;;;;4992970;28;20581;-72
2022/11/02 13:03:58;;;;;;;26.70;13.63;;;13.30;99.90;;;;;;4992601;28;20202;-73
2022/11/02 13:06:31;;;;;;;23.97;13.27;;;13.20;99.90;;;;;;4992740;28;20192;-72
2022/11/02 13:09:04;;;;;;;25.73;12.93;;;13.20;99.90;;;;;;4992568;28;20206;-69
2022/11/02 13:11:35;;;;;;;22.00;12.67;;;13.20;99.90;;;;;;4992561;28;20200;-70
2022/11/02 13:14:11;;;;;;;30.17;13.77;;;13.20;99.90;;;;;;4992829;28;20196;-70
2022/11/02 13:16:41;;;;;;;23.00;13.40;;;13.20;99.90;;;;;;4992046;28;20242;-71
2022/11/02 13:19:16;;;;;;;27.47;12.70;;;13.10;99.90;;;;;;4993331;28;20219;-71
2022/11/02 13:21:48;;;;;;;24.50;12.60;;;13.10;99.90;;;;;;4992579;28;20531;-70
2022/11/02 13:24:19;;;;;;;27.00;13.43;;;13.10;99.90;;;;;;4992287;28;20206;-71
2022/11/02 13:26:49;;;;;;;28.53;12.23;;;13.00;99.90;;;;;;4992298;28;20195;-71
2022/11/02 13:29:21;;;;;;;22.60;12.10;;;13.00;99.90;;;;;;4992222;28;20233;-71
2022/11/02 13:31:53;;;;;;;23.23;12.60;;;13.00;99.90;;;;;;4992468;28;20202;-72
2022/11/02 13:34:33;;;;;;;26.13;11.53;;;12.90;99.90;;;;;;4992106;28;20206;-71
2022/11/02 13:37:06;;;;;;;21.30;12.10;;;12.90;99.90;;;;;;4992338;28;20215;-72
2022/11/02 13:39:37;;;;;;;25.70;12.37;;;12.90;99.90;;;;;;4992475;28;20630;-71
2022/11/02 13:42:50;;;;;;;27.10;12.33;;;12.90;99.90;;;;;;4992340;28;20660;-72
2022/11/02 13:45:37;;;;;;;21.37;12.40;;;12.90;99.90;;;;;;4981935;28;20204;-71
2022/11/02 13:48:30;;;;;;;19.23;11.20;;;12.90;99.90;;;;;;4992382;28;20606;-71
2022/11/02 13:51:00;;;;;;;22.90;12.70;;;12.90;99.90;;;;;;4992373;28;20215;-72
2022/11/02 13:53:30;;;;;;;22.40;12.50;;;12.90;99.90;;;;;;4994607;28;20206;-72
2022/11/02 13:56:00;;;;;;;26.93;12.37;;;12.80;99.90;;;;;;4995934;28;20191;-74
2022/11/02 13:58:31;;;;;;;22.37;12.03;;;12.80;99.90;;;;;;4995712;28;20233;-70
2022/11/02 14:01:02;;;;;;;22.37;12.27;;;12.80;99.90;;;;;;4995894;28;20195;-71
2022/11/02 14:03:33;;;;;;;26.23;12.40;;;12.80;99.90;;;;;;4995803;28;20195;-70
2022/11/02 14:06:02;;;;;;;23.70;14.17;;;12.70;99.90;;;;;;4995427;28;20192;-70
2022/11/02 14:08:34;;;;;;;29.73;15.13;;;12.70;99.90;;;;;;4996033;28;20203;-71
2022/11/02 14:11:23;;;;;;;24.13;12.63;;;12.70;99.90;;;;;;4996134;28;20199;-72
2022/11/02 14:14:07;;;;;;;25.60;14.30;;;12.70;99.90;;;;;;4995554;28;20192;-73
2022/11/02 14:16:44;;;;;;;26.50;14.13;;;12.70;99.90;;;;;;4994857;28;20713;-71
2022/11/02 14:19:21;;;;;;;24.33;12.67;;;12.70;99.90;;;;;;4995606;28;20550;-71
2022/11/02 14:22:12;;;;;;;29.23;12.30;;;12.70;99.90;;;;;;4994486;28;20204;-67
2022/11/02 14:25:13;;;;;;;23.20;11.73;;;12.60;99.90;;;;;;4994962;28;20202;-68
2022/11/02 14:27:39;;;;;;;22.57;11.20;;;12.60;99.90;;;;;;4993778;28;20693;-70
2022/11/02 14:30:44;;;;;;;20.53;11.63;;;12.50;99.90;;;;;;5002172;28;20214;-69
2022/11/02 20:48:34;;;;;;;31.10;16.37;;;8.70;99.90;;;;;;5037526;28;20594;-70
2022/11/02 20:51:01;;;;;;;28.90;16.77;;;9.30;99.90;;;;;;5028585;28;20220;-68
2022/11/02 20:53:27;;;;;;;26.67;16.40;;;9.30;99.90;;;;;;5025613;28;20224;-69
2022/11/02 20:55:56;;;;;;;24.80;15.93;;;9.30;99.90;;;;;;5025079;28;20222;-70
2022/11/02 20:58:23;;;;;;;27.93;16.20;;;9.30;99.90;;;;;;5023722;28;20217;-70
2022/11/02 21:00:50;;;;;;;25.93;14.73;;;9.40;99.90;;;;;;5022690;28;20206;-69
2022/11/02 21:03:18;;;;;;;29.13;16.70;;;9.40;99.90;;;;;;5023458;28;20217;-69
2022/11/02 21:05:46;;;;;;;27.30;15.70;;;9.40;99.90;;;;;;5021243;28;20201;-71
2022/11/02 21:08:14;;;;;;;32.87;17.50;;;9.50;99.90;;;;;;5014130;28;20295;-70
2022/11/02 21:10:41;;;;;;;30.23;16.37;;;9.50;99.90;;;;;;5019729;28;20206;-70
2022/11/02 21:15:54;;;;;;;28.00;15.80;;;9.60;99.90;;;;;;5014007;28;20208;-69
2022/11/02 21:18:21;;;;;;;29.93;16.13;;;9.60;99.90;;;;;;5025292;28;20198;-70
2022/11/02 21:20:49;;;;;;;26.33;14.97;;;9.60;99.90;;;;;;5030292;28;20219;-69
2022/11/02 21:23:15;;;;;;;26.83;16.20;;;9.60;99.90;;;;;;5055452;28;20233;-70
2022/11/02 21:25:42;;;;;;;29.03;16.83;;;9.60;99.90;;;;;;5012846;28;20680;-69
2022/11/02 21:28:09;;;;;;;30.83;16.27;;;9.70;99.90;;;;;;5007707;28;20229;-69
2022/11/02 21:30:36;;;;;;;25.50;15.13;;;9.70;99.90;;;;;;5019377;28;20208;-69
2022/11/02 21:33:03;;;;;;;25.23;14.83;;;9.70;99.90;;;;;;5024789;28;20237;-70
2022/11/02 21:35:29;;;;;;;25.67;15.67;;;9.80;99.90;;;;;;5024850;28;20643;-69
2022/11/02 21:37:58;;;;;;;28.37;16.10;;;9.80;99.90;;;;;;5024886;28;20247;-69
2022/11/02 21:40:24;;;;;;;28.87;15.53;;;9.80;99.90;;;;;;5024643;28;20206;-67
2022/11/02 21:42:51;;;;;;;32.27;17.43;;;9.80;99.90;;;;;;5024016;28;20321;-68
2022/11/02 21:45:18;;;;;;;34.47;18.77;;;9.80;99.90;;;;;;5050939;28;20206;-69
2022/11/02 21:47:45;;;;;;;30.17;18.73;;;9.80;99.90;;;;;;5029716;28;20235;-67
2022/11/02 21:50:12;;;;;;;33.63;20.77;;;9.80;99.90;;;;;;5056409;28;20195;-68
2022/11/02 21:52:38;;;;;;;28.30;17.53;;;9.80;99.90;;;;;;5036033;28;20652;-67
2022/11/02 21:55:08;;;;;;;27.93;15.67;;;9.80;99.90;;;;;;5031352;28;20210;-68
2022/11/02 21:57:35;;;;;;;27.53;16.23;;;9.80;99.90;;;;;;5030680;28;20202;-68
2022/11/02 22:00:02;;;;;;;27.40;15.83;;;9.80;99.90;;;;;;5031044;28;20202;-67
2022/11/02 22:02:27;;;;;;;30.60;16.73;;;9.80;99.90;;;;;;5022921;28;20212;-69
2022/11/02 22:04:54;;;;;;;27.47;17.17;;;9.80;99.90;;;;;;4991786;28;20219;-68
2022/11/02 22:07:22;;;;;;;31.10;17.53;;;9.80;99.90;;;;;;4992833;28;20277;-66
2022/11/02 22:09:48;;;;;;;29.80;17.33;;;9.80;99.90;;;;;;4992851;28;20211;-68
2022/11/02 22:15:15;;;;;;;32.20;18.23;;;9.70;99.90;;;;;;4950611;28;20573;-65
2022/11/02 22:17:42;;;;;;;34.83;19.53;;;9.80;99.90;;;;;;4950142;29;20209;-68
2022/11/02 22:20:09;;;;;;;35.40;19.23;;;9.70;99.90;;;;;;4967314;28;20215;-67
2022/11/02 22:22:36;;;;;;;34.57;18.83;;;9.70;99.90;;;;;;4991050;28;20207;-67
2022/11/02 22:25:03;;;;;;;33.97;19.33;;;9.70;99.90;;;;;;4991388;28;20218;-67
2022/11/02 22:27:31;;;;;;;37.47;19.43;;;9.70;99.90;;;;;;4990811;28;20222;-68
2022/11/02 22:29:58;;;;;;;36.57;19.60;;;9.70;99.90;;;;;;4991134;28;20571;-67
2022/11/02 22:32:25;;;;;;;35.07;19.27;;;9.70;99.90;;;;;;4990711;28;20579;-67
2022/11/02 22:34:52;;;;;;;36.03;20.17;;;9.70;99.90;;;;;;4990731;28;20208;-68
2022/11/02 22:40:03;;;;;;;35.10;18.57;;;9.70;99.90;;;;;;4991234;28;20269;-68
2022/11/02 22:42:31;;;;;;;35.03;19.67;;;9.70;99.90;;;;;;4990822;28;20227;-69
2022/11/02 22:44:59;;;;;;;39.73;20.30;;;9.70;99.90;;;;;;4994585;28;20207;-69
2022/11/02 22:47:26;;;;;;;30.83;18.57;;;9.70;99.90;;;;;;4990950;28;20569;-68
2022/11/02 22:49:53;;;;;;;37.60;19.23;;;9.70;99.90;;;;;;4991948;28;20217;-69
2022/11/02 22:52:19;;;;;;;36.57;19.20;;;9.70;99.90;;;;;;4996282;28;20222;-68
2022/11/02 22:54:46;;;;;;;36.70;19.67;;;9.70;99.90;;;;;;4997263;28;20211;-69
2022/11/02 22:57:13;;;;;;;35.30;19.47;;;9.70;99.90;;;;;;4991587;28;20440;-68
2022/11/02 22:59:41;;;;;;;42.33;19.93;;;9.70;99.90;;;;;;4992094;28;20214;-70
2022/11/02 23:02:08;;;;;;;36.97;19.93;;;9.60;99.90;;;;;;5011247;28;20218;-69
2022/11/02 23:04:35;;;;;;;35.97;19.70;;;9.60;99.90;;;;;;5010751;28;20211;-68
2022/11/02 23:07:01;;;;;;;39.77;21.13;;;9.60;99.90;;;;;;5011051;28;20730;-70